In Rescue
 
Open Full Screen Window  High Contrast Mode
Wind Gusting 18 knots
07
October 25, 2021 3:07 PM EDT
Weather Information
Wind Direction
  020 °
Wind Speed
  07 kt (8 mph)
Wind Gust
  18 kt (21 mph)
Altimeter
29.70 in
Visibility
10 SM
Temperature
10° C
50° F
Dewpoint
09° C
48° F
Humidity
94%
1hr Rain Fall
00.01 in.
24hr Rain Fall
01.70 in.
Sky Condition
Overcast @ 900 ft
IFR

METAR KTTF 251907Z AUTO 02007G18KT 10SM OVC009 10/09 A2970 RMK AO2 T01010088 P0001

FAA Disclaimer: The data displayed is for advisory purposes only and is not to be used for flight planning or operations.